sensor_id;sensor_type;location;lat;lon;timestamp;pressure;altitude;pressure_sealevel;temperature;humidity
57232;BME280;43488;46.934;8.276;2023-02-25T00:01:28;95386.00;;;9.51;100.00
57232;BME280;43488;46.934;8.276;2023-02-25T00:03:58;95393.97;;;9.56;100.00
57232;BME280;43488;46.934;8.276;2023-02-25T00:06:25;95393.19;;;9.56;100.00
57232;BME280;43488;46.934;8.276;2023-02-25T00:08:53;95385.06;;;9.46;100.00
57232;BME280;43488;46.934;8.276;2023-02-25T00:11:23;95390.19;;;9.40;100.00
57232;BME280;43488;46.934;8.276;2023-02-25T00:13:51;95390.88;;;9.48;100.00
57232;BME280;43488;46.934;8.276;2023-02-25T00:16:21;95397.03;;;9.41;100.00
57232;BME280;43488;46.934;8.276;2023-02-25T00:18:55;95404.03;;;9.36;100.00
57232;BME280;43488;46.934;8.276;2023-02-25T00:21:24;95394.88;;;9.38;100.00
57232;BME280;43488;46.934;8.276;2023-02-25T00:23:51;95404.91;;;9.41;100.00
57232;BME280;43488;46.934;8.276;2023-02-25T00:26:22;95403.13;;;9.42;100.00
57232;BME280;43488;46.934;8.276;2023-02-25T00:28:49;95406.66;;;9.48;100.00
57232;BME280;43488;46.934;8.276;2023-02-25T00:31:20;95402.53;;;9.40;100.00
57232;BME280;43488;46.934;8.276;2023-02-25T00:33:49;95399.91;;;9.40;100.00
57232;BME280;43488;46.934;8.276;2023-02-25T00:36:20;95409.06;;;9.49;100.00
57232;BME280;43488;46.934;8.276;2023-02-25T00:38:51;95392.94;;;9.46;100.00
57232;BME280;43488;46.934;8.276;2023-02-25T00:41:24;95402.28;;;9.41;100.00
57232;BME280;43488;46.934;8.276;2023-02-25T00:43:55;95404.72;;;9.43;100.00
57232;BME280;43488;46.934;8.276;2023-02-25T00:46:23;95393.63;;;9.41;100.00
57232;BME280;43488;46.934;8.276;2023-02-25T00:48:51;95398.66;;;9.43;100.00
57232;BME280;43488;46.934;8.276;2023-02-25T00:51:22;95398.66;;;9.43;100.00
57232;BME280;43488;46.934;8.276;2023-02-25T00:53:51;95409.50;;;9.46;100.00
57232;BME280;43488;46.934;8.276;2023-02-25T00:56:18;95398.53;;;9.49;100.00
57232;BME280;43488;46.934;8.276;2023-02-25T00:58:48;95405.84;;;9.47;100.00
57232;BME280;43488;46.934;8.276;2023-02-25T01:03:51;95401.16;;;9.49;100.00
57232;BME280;43488;46.934;8.276;2023-02-25T01:06:19;95396.59;;;9.45;100.00
57232;BME280;43488;46.934;8.276;2023-02-25T01:08:46;95397.63;;;9.44;100.00
57232;BME280;43488;46.934;8.276;2023-02-25T01:11:21;95405.84;;;9.47;100.00
57232;BME280;43488;46.934;8.276;2023-02-25T01:14:05;95405.63;;;9.49;100.00
57232;BME280;43488;46.934;8.276;2023-02-25T01:16:34;95405.63;;;9.49;100.00
57232;BME280;43488;46.934;8.276;2023-02-25T01:19:08;95407.34;;;9.43;100.00
57232;BME280;43488;46.934;8.276;2023-02-25T01:21:40;95397.41;;;9.45;100.00
57232;BME280;43488;46.934;8.276;2023-02-25T01:24:12;95405.06;;;9.47;100.00
57232;BME280;43488;46.934;8.276;2023-02-25T01:26:42;95404.03;;;9.48;100.00
57232;BME280;43488;46.934;8.276;2023-02-25T01:29:18;95395.44;;;9.40;100.00
57232;BME280;43488;46.934;8.276;2023-02-25T01:31:45;95392.38;;;9.44;100.00
57232;BME280;43488;46.934;8.276;2023-02-25T01:34:16;95387.94;;;9.44;100.00
57232;BME280;43488;46.934;8.276;2023-02-25T01:36:44;95382.91;;;9.43;100.00
57232;BME280;43488;46.934;8.276;2023-02-25T01:39:14;95379.25;;;9.44;100.00
57232;BME280;43488;46.934;8.276;2023-02-25T01:41:43;95374.31;;;9.35;100.00
57232;BME280;43488;46.934;8.276;2023-02-25T01:44:27;95369.31;;;9.34;100.00
57232;BME280;43488;46.934;8.276;2023-02-25T01:46:54;95364.38;;;9.37;100.00
57232;BME280;43488;46.934;8.276;2023-02-25T01:52:14;95366.69;;;9.34;100.00
57232;BME280;43488;46.934;8.276;2023-02-25T01:54:48;95360.03;;;9.31;100.00
57232;BME280;43488;46.934;8.276;2023-02-25T01:57:18;95351.94;;;9.33;100.00
57232;BME280;43488;46.934;8.276;2023-02-25T01:59:48;95356.13;;;9.22;100.00
57232;BME280;43488;46.934;8.276;2023-02-25T02:02:20;95360.81;;;9.08;100.00
57232;BME280;43488;46.934;8.276;2023-02-25T02:04:51;95351.91;;;9.09;100.00
57232;BME280;43488;46.934;8.276;2023-02-25T02:07:22;95357.50;;;9.13;100.00
57232;BME280;43488;46.934;8.276;2023-02-25T02:09:50;95355.81;;;9.19;100.00
57232;BME280;43488;46.934;8.276;2023-02-25T02:12:35;95348.16;;;9.17;100.00
57232;BME280;43488;46.934;8.276;2023-02-25T02:15:07;95351.91;;;9.09;100.00
57232;BME280;43488;46.934;8.276;2023-02-25T02:17:55;95344.91;;;9.03;100.00
57232;BME280;43488;46.934;8.276;2023-02-25T02:20:29;95350.06;;;9.10;100.00
57232;BME280;43488;46.934;8.276;2023-02-25T02:24:33;95351.81;;;9.16;100.00
57232;BME280;43488;46.934;8.276;2023-02-25T02:35:19;95361.38;;;9.22;100.00
57232;BME280;43488;46.934;8.276;2023-02-25T02:38:06;95356.25;;;9.16;100.00
57232;BME280;43488;46.934;8.276;2023-02-25T02:41:00;95342.19;;;9.10;100.00
57232;BME280;43488;46.934;8.276;2023-02-25T02:43:39;95339.00;;;9.08;100.00
57232;BME280;43488;46.934;8.276;2023-02-25T02:47:05;95346.31;;;9.06;100.00
57232;BME280;43488;46.934;8.276;2023-02-25T02:50:09;95336.63;;;9.06;100.00
57232;BME280;43488;46.934;8.276;2023-02-25T02:52:42;95334.09;;;9.00;100.00
57232;BME280;43488;46.934;8.276;2023-02-25T02:55:38;95330.09;;;8.97;100.00
57232;BME280;43488;46.934;8.276;2023-02-25T02:58:31;95336.13;;;8.98;100.00
57232;BME280;43488;46.934;8.276;2023-02-25T03:01:16;95334.19;;;8.93;100.00
57232;BME280;43488;46.934;8.276;2023-02-25T03:03:58;95338.53;;;8.99;100.00
57232;BME280;43488;46.934;8.276;2023-02-25T03:06:33;95348.91;;;8.94;100.00
57232;BME280;43488;46.934;8.276;2023-02-25T03:09:28;95347.53;;;9.03;100.00
57232;BME280;43488;46.934;8.276;2023-02-25T03:11:59;95346.88;;;8.96;100.00
57232;BME280;43488;46.934;8.276;2023-02-25T03:14:26;95340.53;;;8.86;100.00
57232;BME280;43488;46.934;8.276;2023-02-25T03:17:08;95339.50;;;8.87;100.00
57232;BME280;43488;46.934;8.276;2023-02-25T03:19:49;95344.56;;;8.88;100.00
57232;BME280;43488;46.934;8.276;2023-02-25T03:22:24;95337.00;;;8.80;100.00
57232;BME280;43488;46.934;8.276;2023-02-25T03:25:20;95338.84;;;8.79;100.00
57232;BME280;43488;46.934;8.276;2023-02-25T03:27:53;95349.69;;;8.83;100.00
57232;BME280;43488;46.934;8.276;2023-02-25T03:30:42;95357.63;;;8.76;100.00
57232;BME280;43488;46.934;8.276;2023-02-25T03:33:25;95350.22;;;8.73;100.00
57232;BME280;43488;46.934;8.276;2023-02-25T03:35:55;95347.25;;;8.70;100.00
57232;BME280;43488;46.934;8.276;2023-02-25T03:38:27;95350.44;;;8.72;100.00
57232;BME280;43488;46.934;8.276;2023-02-25T03:40:56;95358.78;;;8.69;100.00
57232;BME280;43488;46.934;8.276;2023-02-25T03:43:38;95356.94;;;8.69;100.00
57232;BME280;43488;46.934;8.276;2023-02-25T03:46:07;95371.44;;;8.72;100.00
57232;BME280;43488;46.934;8.276;2023-02-25T03:48:37;95366.66;;;8.69;100.00
57232;BME280;43488;46.934;8.276;2023-02-25T03:51:05;95364.38;;;8.72;100.00
57232;BME280;43488;46.934;8.276;2023-02-25T03:53:34;95373.38;;;8.76;100.00
57232;BME280;43488;46.934;8.276;2023-02-25T03:56:06;95384.09;;;8.75;100.00
57232;BME280;43488;46.934;8.276;2023-02-25T03:58:36;95383.75;;;8.71;100.00
57232;BME280;43488;46.934;8.276;2023-02-25T04:01:15;95386.00;;;8.68;100.00
57232;BME280;43488;46.934;8.276;2023-02-25T04:03:43;95386.47;;;8.65;100.00
57232;BME280;43488;46.934;8.276;2023-02-25T04:06:11;95390.59;;;8.72;100.00
57232;BME280;43488;46.934;8.276;2023-02-25T04:08:40;95388.78;;;8.73;100.00
57232;BME280;43488;46.934;8.276;2023-02-25T04:11:08;95389.34;;;8.75;100.00
57232;BME280;43488;46.934;8.276;2023-02-25T04:13:35;95396.66;;;8.73;100.00
57232;BME280;43488;46.934;8.276;2023-02-25T04:16:03;95399.56;;;8.65;100.00
57232;BME280;43488;46.934;8.276;2023-02-25T04:18:30;95402.09;;;8.60;100.00
57232;BME280;43488;46.934;8.276;2023-02-25T04:20:58;95405.69;;;8.59;100.00
57232;BME280;43488;46.934;8.276;2023-02-25T04:23:25;95405.69;;;8.59;100.00
57232;BME280;43488;46.934;8.276;2023-02-25T04:25:53;95411.41;;;8.55;100.00
57232;BME280;43488;46.934;8.276;2023-02-25T04:28:21;95420.88;;;8.38;100.00
57232;BME280;43488;46.934;8.276;2023-02-25T04:30:49;95410.88;;;8.10;100.00
57232;BME280;43488;46.934;8.276;2023-02-25T04:33:16;95428.72;;;8.02;100.00
57232;BME280;43488;46.934;8.276;2023-02-25T04:35:43;95427.66;;;7.84;100.00
57232;BME280;43488;46.934;8.276;2023-02-25T04:38:10;95422.38;;;7.91;100.00
57232;BME280;43488;46.934;8.276;2023-02-25T04:40:37;95426.69;;;7.60;100.00
57232;BME280;43488;46.934;8.276;2023-02-25T04:43:05;95429.22;;;7.67;100.00
57232;BME280;43488;46.934;8.276;2023-02-25T04:45:32;95443.34;;;7.66;100.00
57232;BME280;43488;46.934;8.276;2023-02-25T04:47:59;95447.47;;;7.55;100.00
57232;BME280;43488;46.934;8.276;2023-02-25T04:50:26;95447.22;;;7.63;99.00
57232;BME280;43488;46.934;8.276;2023-02-25T04:52:53;95441.16;;;7.63;98.32
57232;BME280;43488;46.934;8.276;2023-02-25T04:55:21;95446.28;;;7.76;97.80
57232;BME280;43488;46.934;8.276;2023-02-25T04:57:48;95446.50;;;7.50;96.69
57232;BME280;43488;46.934;8.276;2023-02-25T05:00:21;95448.28;;;7.56;97.47
57232;BME280;43488;46.934;8.276;2023-02-25T05:02:57;95446.53;;;7.68;95.68
57232;BME280;43488;46.934;8.276;2023-02-25T05:05:25;95444.94;;;7.67;95.24
57232;BME280;43488;46.934;8.276;2023-02-25T05:07:53;95445.91;;;7.73;93.83
57232;BME280;43488;46.934;8.276;2023-02-25T05:10:21;95439.78;;;7.35;94.09
57232;BME280;43488;46.934;8.276;2023-02-25T05:12:48;95444.22;;;7.60;93.91
57232;BME280;43488;46.934;8.276;2023-02-25T05:15:15;95445.34;;;7.70;93.27
57232;BME280;43488;46.934;8.276;2023-02-25T05:17:43;95442.19;;;7.62;93.10
57232;BME280;43488;46.934;8.276;2023-02-25T05:20:11;95443.81;;;7.31;93.27
57232;BME280;43488;46.934;8.276;2023-02-25T05:22:40;95447.78;;;7.40;93.43
57232;BME280;43488;46.934;8.276;2023-02-25T05:25:09;95440.81;;;7.28;93.58
57232;BME280;43488;46.934;8.276;2023-02-25T05:27:41;95438.63;;;7.25;93.47
57232;BME280;43488;46.934;8.276;2023-02-25T05:30:09;95436.44;;;7.22;92.67
57232;BME280;43488;46.934;8.276;2023-02-25T05:32:37;95439.13;;;7.15;92.47
57232;BME280;43488;46.934;8.276;2023-02-25T05:35:08;95441.72;;;7.15;93.17
57232;BME280;43488;46.934;8.276;2023-02-25T05:37:36;95430.66;;;7.13;93.13
57232;BME280;43488;46.934;8.276;2023-02-25T05:40:04;95432.75;;;7.04;94.13
57232;BME280;43488;46.934;8.276;2023-02-25T05:42:35;95440.75;;;7.09;93.33
57232;BME280;43488;46.934;8.276;2023-02-25T05:45:03;95438.78;;;7.05;93.79
57232;BME280;43488;46.934;8.276;2023-02-25T05:47:30;95439.38;;;7.07;93.83
57232;BME280;43488;46.934;8.276;2023-02-25T05:49:58;95442.94;;;7.12;92.12
57232;BME280;43488;46.934;8.276;2023-02-25T05:52:25;95451.75;;;7.18;91.96
57232;BME280;43488;46.934;8.276;2023-02-25T05:54:52;95454.59;;;7.17;91.87
57232;BME280;43488;46.934;8.276;2023-02-25T05:57:19;95453.59;;;7.18;91.29
57232;BME280;43488;46.934;8.276;2023-02-25T05:59:50;95441.88;;;7.20;90.70
57232;BME280;43488;46.934;8.276;2023-02-25T06:02:17;95441.03;;;7.26;90.90
57232;BME280;43488;46.934;8.276;2023-02-25T06:04:44;95448.13;;;7.19;90.73
57232;BME280;43488;46.934;8.276;2023-02-25T06:07:11;95452.19;;;7.15;89.53
57232;BME280;43488;46.934;8.276;2023-02-25T06:09:38;95460.97;;;7.27;90.15
57232;BME280;43488;46.934;8.276;2023-02-25T06:12:07;95457.81;;;7.19;89.60
57232;BME280;43488;46.934;8.276;2023-02-25T06:14:34;95460.19;;;7.20;89.18
57232;BME280;43488;46.934;8.276;2023-02-25T06:17:02;95459.00;;;7.23;89.35
57232;BME280;43488;46.934;8.276;2023-02-25T06:19:29;95453.59;;;7.18;89.77
57232;BME280;43488;46.934;8.276;2023-02-25T06:21:56;95460.78;;;7.22;89.18
57232;BME280;43488;46.934;8.276;2023-02-25T06:24:24;95470.91;;;7.12;88.73
57232;BME280;43488;46.934;8.276;2023-02-25T06:26:51;95460.44;;;7.12;89.25
57232;BME280;43488;46.934;8.276;2023-02-25T06:29:18;95467.25;;;7.20;89.57
57232;BME280;43488;46.934;8.276;2023-02-25T06:31:45;95472.53;;;7.13;88.95
57232;BME280;43488;46.934;8.276;2023-02-25T06:34:12;95469.91;;;7.13;89.07
57232;BME280;43488;46.934;8.276;2023-02-25T06:36:40;95473.38;;;7.07;89.18
57232;BME280;43488;46.934;8.276;2023-02-25T06:39:07;95483.81;;;7.13;88.95
57232;BME280;43488;46.934;8.276;2023-02-25T06:41:34;95480.56;;;7.18;88.93
57232;BME280;43488;46.934;8.276;2023-02-25T06:44:01;95485.81;;;6.73;88.99
57232;BME280;43488;46.934;8.276;2023-02-25T06:46:30;95493.06;;;6.78;90.84
57232;BME280;43488;46.934;8.276;2023-02-25T06:48:57;95483.44;;;6.65;91.23
57232;BME280;43488;46.934;8.276;2023-02-25T06:51:24;95490.53;;;6.51;90.77
57232;BME280;43488;46.934;8.276;2023-02-25T06:53:52;95491.72;;;6.49;91.96
57232;BME280;43488;46.934;8.276;2023-02-25T06:56:20;95498.34;;;6.58;91.40
57232;BME280;43488;46.934;8.276;2023-02-25T06:58:47;95496.69;;;6.70;91.41
57232;BME280;43488;46.934;8.276;2023-02-25T07:01:15;95497.28;;;6.79;90.82
57232;BME280;43488;46.934;8.276;2023-02-25T07:03:44;95498.63;;;6.88;90.55
57232;BME280;43488;46.934;8.276;2023-02-25T07:06:11;95499.59;;;6.94;90.43
57232;BME280;43488;46.934;8.276;2023-02-25T07:08:41;95493.72;;;7.05;89.81
57232;BME280;43488;46.934;8.276;2023-02-25T07:13:47;95511.66;;;6.95;90.66
57232;BME280;43488;46.934;8.276;2023-02-25T07:16:15;95516.72;;;6.96;91.08
57232;BME280;43488;46.934;8.276;2023-02-25T07:18:45;95515.31;;;6.94;90.19
57232;BME280;43488;46.934;8.276;2023-02-25T07:21:13;95518.72;;;6.94;89.92
57232;BME280;43488;46.934;8.276;2023-02-25T07:23:42;95517.72;;;6.95;90.17
57232;BME280;43488;46.934;8.276;2023-02-25T07:26:12;95514.16;;;6.76;91.09
57232;BME280;43488;46.934;8.276;2023-02-25T07:28:40;95519.22;;;6.78;91.26
57232;BME280;43488;46.934;8.276;2023-02-25T07:31:16;95522.22;;;6.75;90.88
57232;BME280;43488;46.934;8.276;2023-02-25T07:33:45;95524.22;;;6.79;92.04
57232;BME280;43488;46.934;8.276;2023-02-25T07:36:12;95524.16;;;6.93;91.86
57232;BME280;43488;46.934;8.276;2023-02-25T07:38:41;95521.53;;;6.99;91.89
57232;BME280;43488;46.934;8.276;2023-02-25T07:41:15;95518.09;;;7.05;91.31
57232;BME280;43488;46.934;8.276;2023-02-25T07:43:43;95513.22;;;7.09;91.76
57232;BME280;43488;46.934;8.276;2023-02-25T07:46:11;95524.06;;;7.12;91.92
57232;BME280;43488;46.934;8.276;2023-02-25T07:48:41;95522.31;;;7.06;91.41
57232;BME280;43488;46.934;8.276;2023-02-25T07:51:17;95512.44;;;7.02;89.36
57232;BME280;43488;46.934;8.276;2023-02-25T07:53:46;95504.19;;;7.05;88.49
57232;BME280;43488;46.934;8.276;2023-02-25T07:56:15;95509.38;;;7.11;89.16
57232;BME280;43488;46.934;8.276;2023-02-25T07:58:43;95511.97;;;7.18;89.07
57232;BME280;43488;46.934;8.276;2023-02-25T08:01:28;95523.31;;;7.05;90.59
57232;BME280;43488;46.934;8.276;2023-02-25T08:03:58;95510.03;;;7.00;92.08
57232;BME280;43488;46.934;8.276;2023-02-25T08:06:26;95513.66;;;7.06;91.44
57232;BME280;43488;46.934;8.276;2023-02-25T08:08:55;95515.50;;;6.99;90.62
57232;BME280;43488;46.934;8.276;2023-02-25T08:11:24;95516.53;;;6.91;90.17
57232;BME280;43488;46.934;8.276;2023-02-25T08:13:52;95520.13;;;6.97;90.42
57232;BME280;43488;46.934;8.276;2023-02-25T08:16:20;95518.09;;;6.99;90.91
57232;BME280;43488;46.934;8.276;2023-02-25T08:18:48;95519.94;;;6.98;90.37
57232;BME280;43488;46.934;8.276;2023-02-25T08:21:17;95519.72;;;7.00;89.37
57232;BME280;43488;46.934;8.276;2023-02-25T08:23:45;95523.34;;;6.99;90.41
57232;BME280;43488;46.934;8.276;2023-02-25T08:26:13;95512.91;;;6.92;89.52
57232;BME280;43488;46.934;8.276;2023-02-25T08:28:45;95516.53;;;6.91;89.06
57232;BME280;43488;46.934;8.276;2023-02-25T08:31:12;95518.63;;;6.69;90.16
57232;BME280;43488;46.934;8.276;2023-02-25T08:33:43;95520.59;;;6.80;92.05
57232;BME280;43488;46.934;8.276;2023-02-25T08:36:15;95516.78;;;6.76;89.20
57232;BME280;43488;46.934;8.276;2023-02-25T08:38:43;95517.34;;;6.85;88.89
57232;BME280;43488;46.934;8.276;2023-02-25T08:41:11;95517.06;;;6.62;89.20
57232;BME280;43488;46.934;8.276;2023-02-25T08:43:38;95517.84;;;6.62;89.66
57232;BME280;43488;46.934;8.276;2023-02-25T08:46:07;95505.34;;;6.77;90.44
57232;BME280;43488;46.934;8.276;2023-02-25T08:48:35;95507.94;;;6.77;87.76
57232;BME280;43488;46.934;8.276;2023-02-25T08:51:08;95513.13;;;6.84;88.50
57232;BME280;43488;46.934;8.276;2023-02-25T08:53:38;95509.56;;;6.78;88.60
57232;BME280;43488;46.934;8.276;2023-02-25T08:56:12;95505.91;;;6.86;88.47
57232;BME280;43488;46.934;8.276;2023-02-25T08:58:40;95505.50;;;6.76;88.83
57232;BME280;43488;46.934;8.276;2023-02-25T09:01:14;95507.69;;;6.85;89.55
57232;BME280;43488;46.934;8.276;2023-02-25T09:03:45;95503.63;;;6.96;89.54
57232;BME280;43488;46.934;8.276;2023-02-25T09:06:26;95495.94;;;7.01;89.98
57232;BME280;43488;46.934;8.276;2023-02-25T09:08:55;95491.50;;;7.08;90.53
57232;BME280;43488;46.934;8.276;2023-02-25T09:11:23;95492.47;;;7.14;88.66
57232;BME280;43488;46.934;8.276;2023-02-25T09:13:51;95493.34;;;7.01;87.82
57232;BME280;43488;46.934;8.276;2023-02-25T09:16:19;95496.91;;;7.13;87.09
57232;BME280;43488;46.934;8.276;2023-02-25T09:18:48;95494.06;;;7.15;86.63
57232;BME280;43488;46.934;8.276;2023-02-25T09:21:16;95492.63;;;7.19;88.19
57232;BME280;43488;46.934;8.276;2023-02-25T09:23:45;95484.78;;;7.19;88.72
57232;BME280;43488;46.934;8.276;2023-02-25T09:26:19;95485.38;;;7.21;88.94
57232;BME280;43488;46.934;8.276;2023-02-25T09:28:47;95484.91;;;7.31;88.53
57232;BME280;43488;46.934;8.276;2023-02-25T09:31:16;95486.91;;;7.35;87.80
57232;BME280;43488;46.934;8.276;2023-02-25T09:33:44;95483.44;;;7.41;87.43
57232;BME280;43488;46.934;8.276;2023-02-25T09:36:14;95485.19;;;7.48;87.18
57232;BME280;43488;46.934;8.276;2023-02-25T09:38:44;95489.59;;;7.54;88.18
57232;BME280;43488;46.934;8.276;2023-02-25T09:41:27;95492.75;;;7.62;88.52
57232;BME280;43488;46.934;8.276;2023-02-25T09:44:21;95483.22;;;7.68;87.82
57232;BME280;43488;46.934;8.276;2023-02-25T09:47:33;95483.97;;;7.75;87.68
57232;BME280;43488;46.934;8.276;2023-02-25T09:50:15;95490.44;;;7.73;86.19
57232;BME280;43488;46.934;8.276;2023-02-25T09:53:13;95489.22;;;7.75;86.23
57232;BME280;43488;46.934;8.276;2023-02-25T09:55:50;95478.16;;;7.73;84.81
57232;BME280;43488;46.934;8.276;2023-02-25T10:04:03;95484.59;;;7.46;85.81
57232;BME280;43488;46.934;8.276;2023-02-25T10:06:42;95478.91;;;7.55;86.03
57232;BME280;43488;46.934;8.276;2023-02-25T10:17:41;95472.41;;;7.58;83.43
57232;BME280;43488;46.934;8.276;2023-02-25T10:21:28;95468.19;;;7.57;85.31
57232;BME280;43488;46.934;8.276;2023-02-25T10:26:48;95481.50;;;7.55;84.35
57232;BME280;43488;46.934;8.276;2023-02-25T10:29:35;95476.28;;;7.55;85.18
57232;BME280;43488;46.934;8.276;2023-02-25T10:32:23;95483.91;;;7.57;87.18
57232;BME280;43488;46.934;8.276;2023-02-25T10:34:58;95475.69;;;7.53;87.65
57232;BME280;43488;46.934;8.276;2023-02-25T10:37:35;95475.47;;;7.55;87.21
57232;BME280;43488;46.934;8.276;2023-02-25T10:40:05;95465.91;;;7.67;88.02
57232;BME280;43488;46.934;8.276;2023-02-25T10:42:37;95463.44;;;7.47;85.86
57232;BME280;43488;46.934;8.276;2023-02-25T10:45:11;95467.94;;;7.65;89.89
57232;BME280;43488;46.934;8.276;2023-02-25T10:47:42;95462.78;;;7.77;88.51
57232;BME280;43488;46.934;8.276;2023-02-25T10:50:15;95459.09;;;7.84;85.86
57232;BME280;43488;46.934;8.276;2023-02-25T10:53:00;95456.28;;;7.86;85.44
57232;BME280;43488;46.934;8.276;2023-02-25T10:58:42;95458.69;;;7.87;85.84
57232;BME280;43488;46.934;8.276;2023-02-25T11:01:19;95451.84;;;7.86;84.17
57232;BME280;43488;46.934;8.276;2023-02-25T11:04:00;95459.91;;;7.85;84.44
57232;BME280;43488;46.934;8.276;2023-02-25T11:06:35;95457.91;;;7.87;83.20
57232;BME280;43488;46.934;8.276;2023-02-25T11:11:59;95464.28;;;7.91;84.02
57232;BME280;43488;46.934;8.276;2023-02-25T11:14:30;95456.72;;;7.83;84.05
57232;BME280;43488;46.934;8.276;2023-02-25T11:17:04;95456.63;;;7.71;83.36
57232;BME280;43488;46.934;8.276;2023-02-25T11:19:37;95454.69;;;7.60;81.78
57232;BME280;43488;46.934;8.276;2023-02-25T11:22:18;95448.19;;;7.69;82.20
57232;BME280;43488;46.934;8.276;2023-02-25T11:25:13;95446.44;;;7.81;82.86
57232;BME280;43488;46.934;8.276;2023-02-25T11:27:44;95440.53;;;7.86;82.74
57232;BME280;43488;46.934;8.276;2023-02-25T11:32:48;95450.22;;;7.85;81.35
57232;BME280;43488;46.934;8.276;2023-02-25T11:35:26;95434.38;;;7.80;80.55
57232;BME280;43488;46.934;8.276;2023-02-25T11:37:57;95432.38;;;7.76;80.07
57232;BME280;43488;46.934;8.276;2023-02-25T11:40:44;95423.31;;;7.78;79.83
57232;BME280;43488;46.934;8.276;2023-02-25T11:43:24;95414.44;;;7.79;79.73
57232;BME280;43488;46.934;8.276;2023-02-25T11:46:02;95417.28;;;7.78;80.39
57232;BME280;43488;46.934;8.276;2023-02-25T11:51:28;95409.69;;;7.69;82.81
57232;BME280;43488;46.934;8.276;2023-02-25T11:57:02;95399.69;;;7.35;82.26
57232;BME280;43488;46.934;8.276;2023-02-25T12:05:58;95384.22;;;7.33;83.73
57232;BME280;43488;46.934;8.276;2023-02-25T12:11:56;95394.25;;;7.36;86.81
57232;BME280;43488;46.934;8.276;2023-02-25T12:15:15;95395.34;;;7.47;86.37
57232;BME280;43488;46.934;8.276;2023-02-25T12:18:18;95393.97;;;7.20;84.48
57232;BME280;43488;46.934;8.276;2023-02-25T12:24:35;95373.94;;;7.07;84.79
57232;BME280;43488;46.934;8.276;2023-02-25T12:30:55;95384.56;;;6.80;84.06
57232;BME280;43488;46.934;8.276;2023-02-25T12:45:52;95358.41;;;6.80;85.34
57232;BME280;43488;46.934;8.276;2023-02-25T12:48:51;95367.31;;;6.73;84.26
57232;BME280;43488;46.934;8.276;2023-02-25T12:51:46;95363.19;;;6.59;83.67
57232;BME280;43488;46.934;8.276;2023-02-25T13:04:20;95342.66;;;6.55;83.41
57232;BME280;43488;46.934;8.276;2023-02-25T13:06:47;95348.16;;;6.47;82.49
57232;BME280;43488;46.934;8.276;2023-02-25T13:15:57;95360.25;;;6.73;84.29
57232;BME280;43488;46.934;8.276;2023-02-25T13:34:23;95365.94;;;6.32;85.84
57232;BME280;43488;46.934;8.276;2023-02-25T13:46:34;95382.91;;;6.03;87.07
57232;BME280;43488;46.934;8.276;2023-02-25T14:25:36;95404.06;;;5.68;91.06
57232;BME280;43488;46.934;8.276;2023-02-25T14:28:00;95406.69;;;5.62;91.22
57232;BME280;43488;46.934;8.276;2023-02-25T14:34:17;95421.53;;;5.48;93.53
57232;BME280;43488;46.934;8.276;2023-02-25T14:40:05;95425.97;;;5.67;90.96
57232;BME280;43488;46.934;8.276;2023-02-25T14:45:55;95423.16;;;5.62;86.85
57232;BME280;43488;46.934;8.276;2023-02-25T14:48:48;95422.97;;;5.51;87.02
57232;BME280;43488;46.934;8.276;2023-02-25T14:51:44;95436.41;;;5.48;88.37
57232;BME280;43488;46.934;8.276;2023-02-25T15:00:55;95452.28;;;5.33;93.37
57232;BME280;43488;46.934;8.276;2023-02-25T15:03:47;95451.25;;;5.21;92.87
57232;BME280;43488;46.934;8.276;2023-02-25T15:13:11;95462.53;;;5.21;92.01
57232;BME280;43488;46.934;8.276;2023-02-25T15:15:52;95472.09;;;5.01;92.84
57232;BME280;43488;46.934;8.276;2023-02-25T15:26:55;95477.50;;;4.86;93.42
57232;BME280;43488;46.934;8.276;2023-02-25T15:34:58;95467.84;;;4.87;92.49
57232;BME280;43488;46.934;8.276;2023-02-25T15:38:01;95473.38;;;5.58;100.00
57232;BME280;43488;46.934;8.276;2023-02-25T15:55:53;95470.28;;;5.01;89.05
57232;BME280;43488;46.934;8.276;2023-02-25T15:58:53;95471.69;;;4.97;86.91
57232;BME280;43488;46.934;8.276;2023-02-25T16:01:39;95463.25;;;5.02;89.09
57232;BME280;43488;46.934;8.276;2023-02-25T16:07:13;95467.22;;;4.84;89.57
57232;BME280;43488;46.934;8.276;2023-02-25T16:10:39;95469.84;;;4.78;92.05
57232;BME280;43488;46.934;8.276;2023-02-25T16:13:35;95462.16;;;4.63;92.31
57232;BME280;43488;46.934;8.276;2023-02-25T16:16:03;95467.56;;;4.62;93.04
57232;BME280;43488;46.934;8.276;2023-02-25T16:18:36;95467.94;;;4.52;92.70
57232;BME280;43488;46.934;8.276;2023-02-25T16:21:26;95476.31;;;4.47;93.74
57232;BME280;43488;46.934;8.276;2023-02-25T16:23:56;95476.38;;;4.54;93.91
57232;BME280;43488;46.934;8.276;2023-02-25T16:26:52;95475.34;;;4.48;93.24
57232;BME280;43488;46.934;8.276;2023-02-25T16:29:50;95488.38;;;4.48;92.79
57232;BME280;43488;46.934;8.276;2023-02-25T16:36:02;95484.78;;;4.49;90.33
57232;BME280;43488;46.934;8.276;2023-02-25T16:38:49;95479.34;;;4.44;90.61
57232;BME280;43488;46.934;8.276;2023-02-25T16:41:21;95484.38;;;4.52;91.46
57232;BME280;43488;46.934;8.276;2023-02-25T16:43:49;95487.53;;;4.41;89.07
57232;BME280;43488;46.934;8.276;2023-02-25T16:46:21;95489.34;;;4.41;90.36
57232;BME280;43488;46.934;8.276;2023-02-25T16:48:56;95485.69;;;4.35;90.70
57232;BME280;43488;46.934;8.276;2023-02-25T16:51:40;95490.88;;;4.28;89.64
57232;BME280;43488;46.934;8.276;2023-02-25T16:54:29;95497.94;;;4.35;90.47
57232;BME280;43488;46.934;8.276;2023-02-25T16:57:00;95502.38;;;4.41;90.08
57232;BME280;43488;46.934;8.276;2023-02-25T16:59:34;95495.97;;;4.43;87.91
57232;BME280;43488;46.934;8.276;2023-02-25T17:02:22;95501.97;;;4.44;88.30
57232;BME280;43488;46.934;8.276;2023-02-25T17:04:53;95500.13;;;4.31;85.94
57232;BME280;43488;46.934;8.276;2023-02-25T17:09:58;95510.75;;;4.36;85.80
57232;BME280;43488;46.934;8.276;2023-02-25T17:12:43;95511.91;;;4.27;86.59
57232;BME280;43488;46.934;8.276;2023-02-25T17:15:21;95502.97;;;4.43;85.64
57232;BME280;43488;46.934;8.276;2023-02-25T17:18:23;95505.00;;;4.47;85.18
57232;BME280;43488;46.934;8.276;2023-02-25T17:21:22;95513.38;;;4.36;85.90
57232;BME280;43488;46.934;8.276;2023-02-25T17:23:50;95513.97;;;4.38;84.03